Main page
METAR-TAF:

METAR-TAF

Airports :

Payerne Air Base

Payerne, Switzerland

latitude: 46-49N, longitude: 006-57E, elevation: 490 m

Current weather observation

The report was made 27 minutes ago, at 13:20 UTC
Wind 4 kt from the North, varying between West/Northwest and Northeast
Temperature 23°C
Humidity 57%
Pressure 1015 hPa
Visibility 10 km or more
no clouds below 1500 m and no cumulonimbus

METAR: LSMP 171320Z 35004KT 300V040 CAVOK 23/14 Q1015 RMK BLU

Time: 15:47 (13:47 UTC)


TAF: missing

Weather observations and forecasts of more than 4000 airports (METAR and TAF reports).

The available stations are represented by yellow and red dots on the map.

Hover mouse over dot to see the name of the station.

Then click to see weather observations and forecasts.

To change the map : click on the green buttons with a black cross to zoom in, on the green button with a dash to zoom out, or on the green arrows for adjacent maps.


METAR-TAF: